Terminal Aerodrome Forecast
Issued by NWS

Home | Current Version | Previous Version | Text Only | Print | Product List | Glossary On
Versions: 1 2 3 4 5 6 7 8 9 10 11 12
000
FTUS42 TJSJ 031740
TAFJMZ
TAF
TJMZ 031740Z 0318/0418 15012KT P6SM SCT040
      TEMPO 0318/0320 BKN040
     FM032250 06004KT P6SM SKC
     FM041430 26011KT P6SM SCT040
      AMD NOT SKED=

USA.gov is the U.S. government's official web portal to all federal, state and local government web resources and services.